createdAt,value
2018-06-15T00:04:29.131Z,101131.00
2018-06-15T00:09:22.808Z,101131.00
2018-06-15T00:14:16.040Z,101124.00
2018-06-15T00:19:09.344Z,101125.00
2018-06-15T00:24:02.579Z,101122.00
2018-06-15T00:28:55.796Z,101119.00
2018-06-15T00:33:49.040Z,101119.00
2018-06-15T00:38:42.274Z,101117.00
2018-06-15T00:43:35.520Z,101121.00
2018-06-15T00:48:28.848Z,101118.00
2018-06-15T00:53:22.081Z,101109.00
2018-06-15T00:58:15.340Z,101114.00
2018-06-15T01:03:08.643Z,101105.00
2018-06-15T01:08:01.905Z,101103.00
2018-06-15T01:12:55.133Z,101096.00
2018-06-15T01:17:48.441Z,101101.00
2018-06-15T01:22:41.747Z,101092.00
2018-06-15T01:27:35.046Z,101094.00
2018-06-15T01:32:28.416Z,101091.00
2018-06-15T01:37:21.664Z,101088.00
2018-06-15T01:42:14.998Z,101085.00
2018-06-15T01:47:08.989Z,101084.00
2018-06-15T01:52:02.210Z,101087.00
2018-06-15T01:56:55.496Z,101087.00
2018-06-15T02:01:48.813Z,101084.00
2018-06-15T02:06:42.111Z,101081.00
2018-06-15T02:11:35.360Z,101077.00
2018-06-15T02:16:28.734Z,101082.00
2018-06-15T02:21:22.018Z,101086.00
2018-06-15T02:26:15.261Z,101085.00
2018-06-15T02:31:08.543Z,101082.00
2018-06-15T02:36:01.836Z,101083.00
2018-06-15T02:40:55.087Z,101080.00
2018-06-15T02:45:48.385Z,101086.00
2018-06-15T02:50:41.676Z,101085.00
2018-06-15T02:55:35.003Z,101085.00
2018-06-15T03:00:28.274Z,101096.00
2018-06-15T03:05:21.801Z,101090.00
2018-06-15T03:10:15.142Z,101098.00
2018-06-15T03:15:08.420Z,101094.00
2018-06-15T03:20:01.685Z,101095.00
2018-06-15T03:24:54.917Z,101097.00
2018-06-15T03:29:48.175Z,101094.00
2018-06-15T03:34:41.403Z,101093.00
2018-06-15T03:39:34.768Z,101091.00
2018-06-15T03:44:28.023Z,101088.00
2018-06-15T03:49:21.259Z,101106.00
2018-06-15T03:54:14.543Z,101120.00
2018-06-15T03:59:07.783Z,101123.00
2018-06-15T04:04:01.060Z,101125.00
2018-06-15T04:08:54.310Z,101131.00
2018-06-15T04:13:47.582Z,101130.00
2018-06-15T04:18:40.967Z,101126.00
2018-06-15T04:23:34.238Z,101130.00
2018-06-15T04:28:27.461Z,101130.00
2018-06-15T04:33:20.719Z,101125.00
2018-06-15T04:38:13.988Z,101123.00
2018-06-15T04:43:07.254Z,101122.00
2018-06-15T04:48:00.502Z,101123.00
2018-06-15T04:52:53.777Z,101123.00
2018-06-15T04:57:47.168Z,101126.00
2018-06-15T05:02:40.423Z,101134.00
2018-06-15T05:07:33.681Z,101133.00
2018-06-15T05:12:26.926Z,101132.00
2018-06-15T05:17:20.298Z,101135.00
2018-06-15T05:22:13.504Z,101128.00
2018-06-15T05:27:06.774Z,101127.00
2018-06-15T05:32:00.016Z,101141.00
2018-06-15T05:36:53.297Z,101142.00
2018-06-15T05:41:46.538Z,101148.00
2018-06-15T05:46:39.776Z,101146.00
2018-06-15T05:51:33.099Z,101153.00
2018-06-15T05:56:27.124Z,101145.00
2018-06-15T06:01:20.437Z,101154.00
2018-06-15T06:06:14.035Z,101151.00
2018-06-15T06:11:07.322Z,101156.00
2018-06-15T06:16:00.656Z,101157.00
2018-06-15T06:20:53.922Z,101161.00
2018-06-15T06:25:47.155Z,101160.00
2018-06-15T06:30:40.416Z,101155.00
2018-06-15T06:35:33.744Z,101163.00
2018-06-15T06:40:27.049Z,101165.00
2018-06-15T06:45:20.343Z,101155.00
2018-06-15T06:50:13.616Z,101173.00
2018-06-15T06:55:06.884Z,101171.00
2018-06-15T07:00:00.228Z,101167.00
2018-06-15T07:04:53.769Z,101172.00
2018-06-15T07:09:47.052Z,101171.00
2018-06-15T07:14:40.706Z,101166.00
2018-06-15T07:19:34.067Z,101174.00
2018-06-15T07:24:27.361Z,101162.00
2018-06-15T07:29:20.615Z,101155.00
2018-06-15T07:34:13.872Z,101158.00
2018-06-15T07:39:08.727Z,101170.00
2018-06-15T07:44:02.015Z,101173.00
2018-06-15T07:48:55.381Z,101155.00
2018-06-15T07:53:48.662Z,101163.00
2018-06-15T07:58:41.922Z,101164.00
2018-06-15T08:03:35.277Z,101153.00
2018-06-15T08:08:28.609Z,101161.00
2018-06-15T08:13:21.847Z,101155.00
2018-06-15T08:18:15.109Z,101158.00
2018-06-15T08:23:08.356Z,101165.00
2018-06-15T08:28:01.669Z,101142.00
2018-06-15T08:32:54.980Z,101140.00
2018-06-15T08:37:48.255Z,101129.00
2018-06-15T08:42:41.547Z,101145.00
2018-06-15T08:47:34.823Z,101127.00
2018-06-15T08:52:28.123Z,101131.00
2018-06-15T08:57:21.350Z,101149.00
2018-06-15T09:02:14.581Z,101151.00
2018-06-15T09:07:07.799Z,101156.00
2018-06-15T09:12:01.049Z,101155.00
2018-06-15T09:16:54.320Z,101154.00
2018-06-15T09:21:47.602Z,101145.00
2018-06-15T09:26:40.874Z,101144.00
2018-06-15T09:31:34.147Z,101140.00
2018-06-15T09:36:27.370Z,101143.00
2018-06-15T09:41:20.616Z,101137.00
2018-06-15T09:46:13.950Z,101143.00
2018-06-15T09:51:07.223Z,101152.00
2018-06-15T09:56:00.520Z,101154.00
2018-06-15T10:00:59.459Z,101154.00
2018-06-15T10:05:52.693Z,101144.00
2018-06-15T10:10:46.022Z,101135.00
2018-06-15T10:15:39.285Z,101140.00
2018-06-15T10:20:33.068Z,101129.00
2018-06-15T10:25:27.123Z,101140.00
2018-06-15T10:30:23.157Z,101142.00
2018-06-15T10:35:16.840Z,101143.00
2018-06-15T10:40:10.103Z,101126.00
2018-06-15T10:45:03.413Z,101131.00
2018-06-15T10:49:56.710Z,101136.00
2018-06-15T10:54:49.971Z,101127.00
2018-06-15T10:59:43.228Z,101118.00
2018-06-15T11:04:36.535Z,101119.00
2018-06-15T11:09:29.906Z,101121.00
2018-06-15T11:14:23.164Z,101119.00
2018-06-15T11:19:16.425Z,101113.00
2018-06-15T11:24:09.690Z,101113.00
2018-06-15T11:29:02.959Z,101111.00
2018-06-15T11:33:56.241Z,101100.00
2018-06-15T11:38:49.520Z,101093.00
2018-06-15T11:43:42.835Z,101082.00
2018-06-15T11:48:36.084Z,101086.00
2018-06-15T11:53:29.332Z,101081.00
2018-06-15T11:58:22.596Z,101073.00
2018-06-15T12:03:15.930Z,101078.00
2018-06-15T12:08:09.183Z,101061.00
2018-06-15T12:13:02.441Z,101072.00
2018-06-15T12:17:55.710Z,101063.00
2018-06-15T12:22:48.945Z,101058.00
2018-06-15T12:27:42.205Z,101056.00
2018-06-15T12:32:35.463Z,101060.00
2018-06-15T12:37:28.861Z,101051.00
2018-06-15T12:42:22.133Z,101060.00
2018-06-15T12:47:15.356Z,101060.00
2018-06-15T12:52:08.624Z,101048.00
2018-06-15T12:57:01.966Z,101051.00
2018-06-15T13:01:55.204Z,101058.00
2018-06-15T13:06:48.471Z,101055.00
2018-06-15T13:11:41.756Z,101058.00
2018-06-15T13:16:35.255Z,101054.00
2018-06-15T13:21:28.504Z,101064.00
2018-06-15T13:26:21.901Z,101050.00
2018-06-15T13:31:15.148Z,101049.00
2018-06-15T13:36:08.518Z,101040.00
2018-06-15T13:41:01.780Z,101048.00
2018-06-15T13:45:55.048Z,101049.00
2018-06-15T13:50:48.891Z,101037.00
2018-06-15T13:55:42.142Z,101034.00
2018-06-15T14:00:35.397Z,101036.00
2018-06-15T14:05:28.716Z,101037.00
2018-06-15T14:10:22.012Z,101035.00
2018-06-15T14:15:15.405Z,101034.00
2018-06-15T14:20:08.661Z,101033.00
2018-06-15T14:25:01.991Z,101023.00
2018-06-15T14:29:55.236Z,101021.00
2018-06-15T14:34:48.487Z,101015.00
2018-06-15T14:39:41.744Z,101009.00
2018-06-15T14:44:35.036Z,101015.00
2018-06-15T14:49:28.954Z,101011.00
2018-06-15T14:54:22.200Z,101003.00
2018-06-15T14:59:15.442Z,101008.00
2018-06-15T15:04:08.688Z,101005.00
2018-06-15T15:09:02.023Z,100998.00
2018-06-15T15:13:58.770Z,100997.00
2018-06-15T15:18:55.840Z,100998.00
2018-06-15T15:23:52.758Z,100993.00
2018-06-15T15:28:49.717Z,100997.00
2018-06-15T15:33:47.197Z,101001.00
2018-06-15T15:38:45.478Z,100998.00
2018-06-15T15:43:41.778Z,100996.00
2018-06-15T15:48:35.227Z,100999.00
2018-06-15T15:53:32.682Z,100989.00
2018-06-15T15:58:26.140Z,100985.00
2018-06-15T16:03:19.463Z,100979.00
2018-06-15T16:08:16.425Z,100978.00
2018-06-15T16:13:13.848Z,100974.00
2018-06-15T16:18:11.045Z,100970.00
2018-06-15T16:23:04.772Z,100969.00
2018-06-15T16:28:02.181Z,100972.00
2018-06-15T16:32:59.288Z,100969.00
2018-06-15T16:37:56.675Z,100974.00
2018-06-15T16:42:50.055Z,100975.00
2018-06-15T16:47:47.189Z,100978.00
2018-06-15T16:52:40.509Z,100979.00
2018-06-15T16:57:39.397Z,100978.00
2018-06-15T17:02:32.716Z,100981.00
2018-06-15T17:07:29.936Z,100981.00
2018-06-15T17:12:28.032Z,100980.00
2018-06-15T17:17:25.376Z,100985.00
2018-06-15T17:22:22.806Z,100986.00
2018-06-15T17:27:16.126Z,100987.00
2018-06-15T17:32:09.379Z,100990.00
2018-06-15T17:37:03.573Z,100993.00
2018-06-15T17:41:57.090Z,101000.00
2018-06-15T17:46:50.372Z,101001.00
2018-06-15T17:51:43.618Z,101005.00
2018-06-15T17:56:36.981Z,101004.00
2018-06-15T18:01:30.526Z,101007.00
2018-06-15T18:06:23.780Z,101011.00
2018-06-15T18:11:17.098Z,101010.00
2018-06-15T18:16:10.354Z,101017.00
2018-06-15T18:21:03.814Z,101012.00
2018-06-15T18:25:57.137Z,101013.00
2018-06-15T18:30:50.375Z,101013.00
2018-06-15T18:35:43.677Z,101016.00
2018-06-15T18:40:36.952Z,101010.00
2018-06-15T18:45:30.251Z,101008.00
2018-06-15T18:50:23.552Z,101007.00
2018-06-15T18:55:16.813Z,101013.00
2018-06-15T19:00:10.055Z,101007.00
2018-06-15T19:05:03.398Z,101013.00
2018-06-15T19:09:56.650Z,101004.00
2018-06-15T19:14:49.936Z,101010.00
2018-06-15T19:19:43.231Z,101015.00
2018-06-15T19:24:36.493Z,101012.00
2018-06-15T19:29:29.749Z,101012.00
2018-06-15T19:34:29.576Z,101014.00
2018-06-15T19:39:22.807Z,101019.00
2018-06-15T19:44:16.071Z,101016.00
2018-06-15T19:49:09.348Z,101018.00
2018-06-15T19:54:03.418Z,101017.00
2018-06-15T19:58:56.725Z,101022.00
2018-06-15T20:03:49.930Z,101024.00
2018-06-15T20:08:43.168Z,101020.00
2018-06-15T20:13:40.386Z,101021.00
2018-06-15T20:18:37.992Z,101016.00
2018-06-15T20:23:34.896Z,101016.00
2018-06-15T20:28:32.323Z,101021.00
2018-06-15T20:33:25.647Z,101025.00
2018-06-15T20:38:22.738Z,101027.00
2018-06-15T20:43:16.201Z,101027.00
2018-06-15T20:48:12.945Z,101030.00
2018-06-15T20:53:09.899Z,101029.00
2018-06-15T20:58:07.958Z,101024.00
2018-06-15T21:03:01.526Z,101024.00
2018-06-15T21:07:59.190Z,101016.00
2018-06-15T21:12:52.473Z,101016.00
2018-06-15T21:17:45.768Z,101015.00
2018-06-15T21:22:39.035Z,101012.00
2018-06-15T21:27:32.297Z,101005.00
2018-06-15T21:32:25.518Z,101003.00
2018-06-15T21:37:18.783Z,101004.00
2018-06-15T21:42:12.017Z,101009.00
2018-06-15T21:47:05.432Z,101004.00
2018-06-15T21:51:58.721Z,101003.00
2018-06-15T21:56:51.958Z,101000.00
2018-06-15T22:01:45.197Z,100997.00
2018-06-15T22:06:38.497Z,101001.00
2018-06-15T22:11:31.877Z,100998.00
2018-06-15T22:16:25.355Z,101009.00
2018-06-15T22:21:18.682Z,101000.00
2018-06-15T22:26:12.071Z,101002.00
2018-06-15T22:31:05.518Z,101001.00
2018-06-15T22:35:58.910Z,101009.00
2018-06-15T22:40:52.240Z,101011.00
2018-06-15T22:45:45.526Z,101019.00
2018-06-15T22:50:38.785Z,101018.00
2018-06-15T22:55:32.048Z,101019.00
2018-06-15T23:00:25.947Z,101022.00
2018-06-15T23:05:19.234Z,101024.00
2018-06-15T23:10:12.502Z,101016.00
2018-06-15T23:15:06.367Z,101014.00
2018-06-15T23:19:59.646Z,101010.00
2018-06-15T23:24:52.934Z,101015.00
2018-06-15T23:29:46.375Z,101015.00
2018-06-15T23:34:39.638Z,101017.00
2018-06-15T23:39:32.930Z,101021.00
2018-06-15T23:44:26.179Z,101016.00
2018-06-15T23:49:19.446Z,101019.00
2018-06-15T23:54:12.698Z,101017.00
2018-06-15T23:59:06.363Z,101015.00
